Time;durP1;ratioP1;P1;durP2;ratioP2;P2;SDS_P1;SDS_P2;PMS_P1;PMS_P2;Temp;Humidity;BMP_temperature;BMP_pressure;BME280_temperature;BME280_humidity;BME280_pressure;Samples;Min_cycle;Max_cycle;Signal;HPM_P1;HPM_P2
2022/04/12 03:01:53;;;;;;;9.03;8.30;;;4.30;99.90;;;;;;5226010;23;20235;-83
2022/04/12 03:04:19;;;;;;;7.93;7.20;;;4.20;99.90;;;;;;4929005;29;20183;-80
2022/04/12 03:06:45;;;;;;;8.90;8.20;;;4.10;99.90;;;;;;4937055;29;20223;-83
2022/04/12 03:09:11;;;;;;;9.03;8.33;;;4.20;99.90;;;;;;4935954;29;20620;-82
2022/04/12 03:11:38;;;;;;;9.03;8.37;;;4.20;99.90;;;;;;4936736;29;20205;-83
2022/04/12 03:14:04;;;;;;;9.00;8.20;;;4.10;99.90;;;;;;4909445;29;20572;-82
2022/04/12 03:16:30;;;;;;;9.30;8.57;;;4.20;99.90;;;;;;4973289;23;20336;-76
2022/04/12 03:18:56;;;;;;;8.63;8.03;;;4.10;99.90;;;;;;4959816;28;20189;-75
2022/04/12 03:21:22;;;;;;;8.53;7.93;;;4.10;99.90;;;;;;4967426;28;20188;-76
2022/04/12 03:23:47;;;;;;;9.43;8.53;;;4.10;99.90;;;;;;4972533;28;20188;-75
2022/04/12 03:26:13;;;;;;;9.10;8.43;;;4.00;99.90;;;;;;4957047;28;20671;-75
2022/04/12 03:28:39;;;;;;;9.30;8.70;;;4.00;99.90;;;;;;4951632;28;20190;-76
2022/04/12 03:31:05;;;;;;;9.53;8.83;;;3.90;99.90;;;;;;4954004;28;20218;-76
2022/04/12 03:33:31;;;;;;;9.03;8.40;;;3.90;99.90;;;;;;4968167;28;20190;-75
2022/04/12 03:35:56;;;;;;;8.93;8.23;;;3.80;99.90;;;;;;4952977;28;20240;-75
2022/04/12 03:38:22;;;;;;;10.10;9.40;;;3.80;99.90;;;;;;4955414;29;20233;-76
2022/04/12 03:40:48;;;;;;;9.97;9.17;;;3.80;99.90;;;;;;4967059;28;20181;-75
2022/04/12 03:43:14;;;;;;;10.43;9.67;;;3.80;99.90;;;;;;4967860;28;20186;-74
2022/04/12 03:45:39;;;;;;;9.97;9.27;;;3.80;99.90;;;;;;4953031;28;20206;-75
2022/04/12 03:48:08;;;;;;;9.67;9.00;;;3.70;99.90;;;;;;4953079;28;20558;-76
2022/04/12 03:50:36;;;;;;;10.03;9.43;;;3.70;99.90;;;;;;4968391;28;20347;-76
2022/04/12 03:53:02;;;;;;;10.07;9.27;;;3.60;99.90;;;;;;4950657;28;20188;-75
2022/04/12 03:55:31;;;;;;;10.57;9.83;;;3.60;99.90;;;;;;4951204;28;20209;-75
2022/04/12 03:57:59;;;;;;;10.27;9.47;;;3.60;99.90;;;;;;4951375;29;20185;-76
2022/04/12 04:00:25;;;;;;;9.33;8.63;;;3.60;99.90;;;;;;4941842;28;20186;-76
2022/04/12 04:02:51;;;;;;;10.70;9.87;;;3.60;99.90;;;;;;4932515;29;20610;-69
2022/04/12 04:05:16;;;;;;;10.60;9.53;;;3.50;99.90;;;;;;4933671;29;20246;-72
2022/04/12 04:07:42;;;;;;;9.77;8.97;;;3.50;99.90;;;;;;4933351;29;20190;-72
2022/04/12 04:10:08;;;;;;;10.47;9.77;;;3.50;99.90;;;;;;4933513;29;20222;-72
2022/04/12 04:12:34;;;;;;;10.67;9.73;;;3.50;99.90;;;;;;4933833;29;20259;-72
2022/04/12 04:15:00;;;;;;;9.97;9.27;;;3.60;99.90;;;;;;4933407;29;20301;-72
2022/04/12 04:17:26;;;;;;;15.20;14.00;;;3.60;99.90;;;;;;4932132;29;20197;-73
2022/04/12 04:19:52;;;;;;;10.43;9.83;;;3.60;99.90;;;;;;4933599;29;20190;-70
2022/04/12 04:22:18;;;;;;;10.93;10.00;;;3.70;99.90;;;;;;4936796;29;20240;-70
2022/04/12 04:24:44;;;;;;;12.63;11.83;;;3.70;99.90;;;;;;4937518;29;20269;-70
2022/04/12 04:27:09;;;;;;;11.03;9.90;;;3.70;99.90;;;;;;4936862;29;20237;-69
2022/04/12 04:29:35;;;;;;;22.77;21.37;;;3.70;99.90;;;;;;4935702;29;20209;-68
2022/04/12 04:32:02;;;;;;;12.50;11.60;;;3.60;99.90;;;;;;4936955;29;20182;-69
2022/04/12 04:34:28;;;;;;;13.93;13.00;;;3.60;99.90;;;;;;4936891;29;20179;-69
2022/04/12 04:36:53;;;;;;;11.30;10.63;;;3.60;99.90;;;;;;4936672;29;20182;-69
2022/04/12 04:39:19;;;;;;;13.10;12.30;;;3.60;99.90;;;;;;4936915;29;20269;-69
2022/04/12 04:41:45;;;;;;;13.40;12.50;;;3.60;99.90;;;;;;4935691;29;20186;-68
2022/04/12 04:44:11;;;;;;;11.83;11.13;;;3.60;99.90;;;;;;4936810;29;20269;-69
2022/04/12 04:46:37;;;;;;;13.47;12.23;;;3.60;99.90;;;;;;4936666;29;20575;-69
2022/04/12 04:49:03;;;;;;;13.50;12.47;;;3.80;99.90;;;;;;4935348;29;20189;-69
2022/04/12 04:51:28;;;;;;;9.37;8.57;;;3.80;99.90;;;;;;4935546;29;20669;-69
2022/04/12 04:54:00;;;;;;;11.83;10.87;;;3.90;99.90;;;;;;4936700;29;20192;-69
2022/04/12 04:56:27;;;;;;;14.60;13.10;;;3.90;99.90;;;;;;4936444;29;20202;-69
2022/04/12 04:58:53;;;;;;;14.30;12.80;;;4.00;99.90;;;;;;4934811;29;20233;-72
2022/04/12 05:01:20;;;;;;;14.73;11.83;;;4.00;99.90;;;;;;4936529;29;20563;-71
2022/04/12 05:03:47;;;;;;;14.83;13.53;;;4.00;99.90;;;;;;4936374;29;20182;-71
2022/04/12 05:06:14;;;;;;;15.47;13.70;;;4.00;99.90;;;;;;4935615;29;20234;-72
2022/04/12 05:08:40;;;;;;;15.33;11.97;;;4.00;99.90;;;;;;4934678;29;20212;-72
2022/04/12 05:11:06;;;;;;;12.83;11.73;;;4.00;99.90;;;;;;4935873;29;20222;-71
2022/04/12 05:13:32;;;;;;;11.33;10.23;;;4.00;99.90;;;;;;4939966;29;20265;-73
2022/04/12 05:15:58;;;;;;;13.50;12.40;;;4.00;99.90;;;;;;4936288;29;20217;-73
2022/04/12 05:18:23;;;;;;;15.27;13.30;;;4.10;99.90;;;;;;4937581;29;20178;-73
2022/04/12 05:20:49;;;;;;;17.37;16.30;;;4.10;99.90;;;;;;4938383;29;20200;-73
2022/04/12 05:23:16;;;;;;;13.13;12.03;;;4.20;99.90;;;;;;4935388;29;20555;-72
2022/04/12 05:25:42;;;;;;;11.60;10.70;;;4.30;99.90;;;;;;4934882;29;20264;-72
2022/04/12 05:28:08;;;;;;;12.77;11.93;;;4.40;99.90;;;;;;4935549;29;20205;-72
2022/04/12 05:30:33;;;;;;;12.47;11.67;;;4.50;99.90;;;;;;4935965;29;20686;-72
2022/04/12 05:32:59;;;;;;;15.13;14.23;;;4.70;99.90;;;;;;4934259;29;20175;-72
2022/04/12 05:35:25;;;;;;;9.23;7.93;;;4.90;99.90;;;;;;4934774;29;20213;-72
2022/04/12 05:37:52;;;;;;;12.33;11.47;;;5.20;99.90;;;;;;4935851;29;20189;-71
2022/04/12 05:40:20;;;;;;;9.70;9.10;;;5.60;99.90;;;;;;4935901;29;20206;-72
2022/04/12 05:42:46;;;;;;;8.80;8.00;;;5.80;99.90;;;;;;4934440;29;20186;-72
2022/04/12 05:45:13;;;;;;;12.13;11.10;;;6.30;99.90;;;;;;4934542;29;20692;-72
2022/04/12 05:47:50;;;;;;;16.73;15.67;;;6.60;99.90;;;;;;4935522;29;20214;-71
2022/04/12 05:50:17;;;;;;;12.10;10.70;;;7.10;99.90;;;;;;4934525;29;20214;-72
2022/04/12 05:52:44;;;;;;;9.30;8.53;;;7.60;99.90;;;;;;4935826;29;20591;-71
2022/04/12 05:55:12;;;;;;;15.53;14.13;;;8.30;99.90;;;;;;4935500;29;20240;-72
2022/04/12 05:57:46;;;;;;;17.63;16.30;;;9.00;99.90;;;;;;4935409;29;20237;-71
2022/04/12 06:00:12;;;;;;;11.20;10.07;;;9.60;99.90;;;;;;4937191;29;20186;-71
2022/04/12 06:02:38;;;;;;;10.83;9.17;;;9.90;99.90;;;;;;4938655;29;20205;-72
2022/04/12 06:05:05;;;;;;;8.47;7.80;;;10.00;99.90;;;;;;4937529;29;20214;-72
2022/04/12 06:07:32;;;;;;;8.47;7.87;;;10.30;99.90;;;;;;4936694;29;20237;-71
2022/04/12 06:10:01;;;;;;;12.03;11.30;;;10.60;99.90;;;;;;4939536;29;20692;-71
2022/04/12 06:12:27;;;;;;;9.53;8.93;;;10.90;99.90;;;;;;4937387;29;20181;-71
2022/04/12 06:14:54;;;;;;;9.53;8.63;;;11.00;99.90;;;;;;4935581;29;20210;-72
2022/04/12 06:17:21;;;;;;;9.77;8.43;;;11.20;99.90;;;;;;4935313;29;20642;-71
2022/04/12 06:19:46;;;;;;;8.77;8.07;;;11.20;99.90;;;;;;4934231;29;20219;-71
2022/04/12 06:22:12;;;;;;;42.27;25.73;;;11.20;99.90;;;;;;4935463;29;20209;-71
2022/04/12 06:24:39;;;;;;;11.57;8.83;;;11.30;99.90;;;;;;4935411;29;20308;-72
2022/04/12 06:27:05;;;;;;;8.67;7.77;;;11.50;99.90;;;;;;4933727;29;20183;-72
2022/04/12 06:29:32;;;;;;;8.43;7.43;;;11.70;99.90;;;;;;4934093;29;20596;-72
2022/04/12 06:31:58;;;;;;;8.43;7.57;;;11.90;99.90;;;;;;4935150;29;20273;-72
2022/04/12 06:34:24;;;;;;;8.63;7.73;;;12.20;99.90;;;;;;4935034;29;20210;-72
2022/04/12 06:36:50;;;;;;;7.80;7.10;;;12.70;99.90;;;;;;4934425;29;20285;-72
2022/04/12 06:39:15;;;;;;;8.27;7.13;;;13.10;99.90;;;;;;4933976;29;20179;-74
2022/04/12 06:41:42;;;;;;;7.90;6.73;;;13.50;99.90;;;;;;4935086;29;20205;-72
2022/04/12 06:44:08;;;;;;;9.37;6.77;;;13.60;99.90;;;;;;4935912;29;20653;-72
2022/04/12 06:46:34;;;;;;;9.43;7.97;;;13.90;99.90;;;;;;4935221;29;20229;-72
2022/04/12 06:49:00;;;;;;;12.57;11.37;;;14.00;99.90;;;;;;4934424;29;20186;-72
2022/04/12 06:51:25;;;;;;;10.27;9.47;;;14.00;99.90;;;;;;4934407;29;20617;-72
2022/04/12 06:53:51;;;;;;;8.80;8.10;;;13.70;99.90;;;;;;4934549;29;20182;-73
2022/04/12 06:56:17;;;;;;;9.43;8.63;;;13.60;99.90;;;;;;4933433;29;20285;-71
2022/04/12 06:58:43;;;;;;;9.40;8.43;;;13.60;99.90;;;;;;4933175;29;20726;-73
2022/04/12 07:01:09;;;;;;;9.90;8.90;;;13.70;99.90;;;;;;4933449;29;20518;-72
2022/04/12 07:03:35;;;;;;;10.07;9.30;;;14.00;99.90;;;;;;4934784;29;20194;-73
2022/04/12 07:06:01;;;;;;;8.43;7.83;;;14.40;99.90;;;;;;4934690;29;20288;-73
2022/04/12 07:08:26;;;;;;;10.73;9.90;;;14.80;99.90;;;;;;4934155;29;20190;-72
2022/04/12 07:10:52;;;;;;;10.27;9.47;;;15.10;99.90;;;;;;4934530;29;20269;-72
2022/04/12 07:13:19;;;;;;;8.67;8.07;;;15.20;99.90;;;;;;4933323;29;20697;-72
2022/04/12 07:15:46;;;;;;;8.87;8.07;;;15.40;99.90;;;;;;4934577;29;20220;-73
2022/04/12 07:18:12;;;;;;;8.30;7.60;;;15.40;99.90;;;;;;4932555;29;20658;-72
2022/04/12 07:20:38;;;;;;;6.70;6.10;;;15.60;99.80;;;;;;4935063;29;20206;-72
2022/04/12 07:23:04;;;;;;;6.73;6.23;;;15.80;97.50;;;;;;4938457;29;20669;-72
2022/04/12 07:25:29;;;;;;;6.93;5.80;;;16.00;96.80;;;;;;4935337;29;20740;-72
2022/04/12 07:27:55;;;;;;;6.37;5.97;;;16.00;95.20;;;;;;4933713;29;20197;-72
2022/04/12 07:30:21;;;;;;;9.77;6.17;;;15.90;95.80;;;;;;4934032;29;20214;-72
2022/04/12 07:32:46;;;;;;;6.73;6.17;;;15.70;96.40;;;;;;4934291;29;20190;-72
2022/04/12 07:35:12;;;;;;;6.47;6.03;;;15.50;96.70;;;;;;4934026;29;20237;-73
2022/04/12 07:37:42;;;;;;;6.97;5.90;;;15.70;97.00;;;;;;4933811;29;20280;-72
2022/04/12 07:40:09;;;;;;;5.37;4.97;;;16.20;96.30;;;;;;4933377;29;20594;-71
2022/04/12 07:42:35;;;;;;;7.23;5.67;;;16.50;95.70;;;;;;4932955;29;20210;-72
2022/04/12 07:45:01;;;;;;;6.00;5.50;;;16.50;94.60;;;;;;4933196;29;20585;-73
2022/04/12 07:47:28;;;;;;;5.77;5.10;;;16.80;94.00;;;;;;4933910;29;20183;-72
2022/04/12 07:49:54;;;;;;;6.17;5.73;;;17.20;93.00;;;;;;4934091;29;20246;-72
2022/04/12 07:52:20;;;;;;;8.40;7.63;;;17.40;91.80;;;;;;4933998;29;20183;-72
2022/04/12 07:54:46;;;;;;;7.73;6.47;;;17.30;90.70;;;;;;4934914;29;20214;-73
2022/04/12 07:57:12;;;;;;;6.30;5.90;;;17.00;91.40;;;;;;4937573;29;20285;-72
2022/04/12 07:59:38;;;;;;;15.13;14.17;;;17.30;91.20;;;;;;4937796;29;20194;-71
2022/04/12 08:02:04;;;;;;;9.77;9.17;;;17.40;89.10;;;;;;4936384;29;20183;-71
2022/04/12 08:04:30;;;;;;;9.37;8.77;;;17.10;88.50;;;;;;4936584;29;20186;-72
2022/04/12 08:06:55;;;;;;;10.13;9.43;;;17.20;87.70;;;;;;4937526;29;20190;-71
2022/04/12 08:09:21;;;;;;;8.23;7.73;;;17.20;87.90;;;;;;4936317;29;20190;-72
2022/04/12 08:11:47;;;;;;;9.53;8.83;;;17.40;87.90;;;;;;4937675;29;20217;-72
2022/04/12 08:14:13;;;;;;;9.07;8.47;;;18.10;86.40;;;;;;4936396;29;20186;-72
2022/04/12 08:16:39;;;;;;;9.37;8.53;;;18.60;85.40;;;;;;4939514;29;20237;-72
2022/04/12 08:19:05;;;;;;;11.60;10.90;;;18.70;81.10;;;;;;4936287;29;20262;-72
2022/04/12 08:21:35;;;;;;;10.70;10.10;;;18.80;79.60;;;;;;4937438;29;20286;-72
2022/04/12 08:24:01;;;;;;;12.23;11.60;;;18.40;80.40;;;;;;4937248;29;20186;-72
2022/04/12 08:26:27;;;;;;;10.80;10.20;;;18.10;79.20;;;;;;4937216;29;20237;-72
2022/04/12 08:28:53;;;;;;;11.47;10.57;;;18.00;80.20;;;;;;4936778;29;20182;-72
2022/04/12 08:31:19;;;;;;;12.13;11.33;;;18.50;79.20;;;;;;4935854;29;20308;-72
2022/04/12 08:33:44;;;;;;;13.60;12.80;;;18.90;76.50;;;;;;4936055;29;20186;-72
2022/04/12 08:36:10;;;;;;;13.40;12.70;;;18.70;76.30;;;;;;4935835;29;20297;-72
2022/04/12 08:38:36;;;;;;;17.40;13.40;;;18.60;76.90;;;;;;4936781;29;20178;-72
2022/04/12 08:41:02;;;;;;;11.73;11.13;;;18.80;76.60;;;;;;4937004;29;20681;-72
2022/04/12 08:43:29;;;;;;;12.43;11.63;;;19.20;75.10;;;;;;4940650;29;20204;-73
2022/04/12 08:45:55;;;;;;;12.00;11.00;;;19.20;75.10;;;;;;4938995;29;20203;-72
2022/04/12 08:48:22;;;;;;;12.00;11.30;;;19.00;73.70;;;;;;4936811;29;20265;-72
2022/04/12 08:50:49;;;;;;;11.03;10.23;;;19.10;74.30;;;;;;4937277;29;20217;-71
2022/04/12 08:53:17;;;;;;;9.83;9.33;;;19.30;72.70;;;;;;4937062;29;20186;-72
2022/04/12 08:55:45;;;;;;;12.30;11.43;;;19.10;72.70;;;;;;4936639;29;20667;-72
2022/04/12 08:58:11;;;;;;;10.57;10.03;;;19.20;73.20;;;;;;4936282;29;20643;-73
2022/04/12 09:00:37;;;;;;;9.70;9.20;;;19.20;72.30;;;;;;4935233;29;20242;-72
2022/04/12 09:03:04;;;;;;;11.77;11.03;;;19.40;70.10;;;;;;4936536;29;20273;-72
2022/04/12 09:05:32;;;;;;;8.40;7.90;;;19.60;71.90;;;;;;4935277;29;20206;-72
2022/04/12 09:07:59;;;;;;;6.27;5.97;;;20.10;68.60;;;;;;4935221;29;20194;-73
2022/04/12 09:10:35;;;;;;;5.23;4.93;;;20.50;66.40;;;;;;4935059;29;20211;-71
2022/04/12 09:13:12;;;;;;;5.90;5.60;;;21.00;64.10;;;;;;4936206;29;20299;-73
2022/04/12 09:15:46;;;;;;;4.83;4.43;;;21.30;62.30;;;;;;4956907;23;20230;-75
2022/04/12 09:18:12;;;;;;;4.07;3.93;;;21.10;59.30;;;;;;4951427;29;20186;-75
2022/04/12 09:20:38;;;;;;;4.77;4.47;;;20.70;59.20;;;;;;4952872;29;20179;-76
2022/04/12 09:23:14;;;;;;;4.73;4.43;;;20.50;60.80;;;;;;4938316;29;20190;-75
2022/04/12 09:25:53;;;;;;;4.53;4.13;;;20.90;59.40;;;;;;4945431;29;20368;-75
2022/04/12 09:28:19;;;;;;;4.87;4.57;;;20.90;58.70;;;;;;4919004;29;20241;-75
2022/04/12 09:30:45;;;;;;;4.60;4.23;;;21.20;58.60;;;;;;4918121;29;20707;-75
2022/04/12 09:33:11;;;;;;;4.77;4.47;;;21.10;58.40;;;;;;4936999;29;20191;-75
2022/04/12 09:35:38;;;;;;;4.03;3.70;;;21.40;56.80;;;;;;4928509;29;20210;-75
2022/04/12 09:38:03;;;;;;;4.53;4.23;;;21.60;57.10;;;;;;4918877;29;20218;-75
2022/04/12 09:40:29;;;;;;;5.17;4.87;;;21.90;56.50;;;;;;4918671;29;20215;-75
2022/04/12 09:43:02;;;;;;;5.10;4.90;;;21.40;55.40;;;;;;4916496;29;20191;-75
2022/04/12 09:45:30;;;;;;;5.00;4.70;;;21.10;56.00;;;;;;4917646;29;20218;-76
2022/04/12 09:47:58;;;;;;;4.77;4.37;;;21.30;56.20;;;;;;4917599;29;20191;-76
2022/04/12 09:50:28;;;;;;;6.20;5.70;;;21.60;55.40;;;;;;4917794;29;20222;-74
2022/04/12 09:53:00;;;;;;;5.25;4.97;;;22.20;54.10;;;;;;4919107;29;20210;-74
2022/04/12 09:55:35;;;;;;;4.60;4.18;;;22.80;53.40;;;;;;4917974;29;20583;-75
2022/04/12 09:58:01;;;;;;;5.72;5.53;;;23.20;52.10;;;;;;4919262;29;20189;-77
2022/04/12 10:00:30;;;;;;;5.32;4.93;;;23.90;50.80;;;;;;4919368;29;20616;-75
2022/04/12 10:03:07;;;;;;;6.82;6.43;;;24.50;49.40;;;;;;4918666;29;20183;-75
2022/04/12 10:05:33;;;;;;;4.28;4.10;;;25.00;47.40;;;;;;4916367;29;20584;-75
2022/04/12 10:08:01;;;;;;;4.05;3.75;;;25.10;47.20;;;;;;4918822;29;20234;-75
2022/04/12 10:10:27;;;;;;;3.83;3.65;;;24.60;46.90;;;;;;4917860;29;20239;-75
2022/04/12 10:12:55;;;;;;;3.67;3.50;;;24.50;46.70;;;;;;4918311;29;20689;-75
2022/04/12 10:15:22;;;;;;;3.60;3.42;;;24.70;46.30;;;;;;4917830;29;20215;-75
2022/04/12 10:17:50;;;;;;;3.70;3.50;;;24.50;45.90;;;;;;4917455;29;20183;-74
2022/04/12 10:20:18;;;;;;;4.28;3.95;;;24.30;47.00;;;;;;4917635;29;20274;-74
2022/04/12 10:22:47;;;;;;;3.25;3.08;;;24.20;44.90;;;;;;4916628;29;20599;-75
2022/04/12 10:25:23;;;;;;;4.28;3.53;;;24.20;45.50;;;;;;4917323;29;20808;-75
2022/04/12 10:27:53;;;;;;;4.20;3.78;;;24.10;45.70;;;;;;4916589;29;20234;-75
2022/04/12 10:30:18;;;;;;;3.50;3.30;;;24.20;45.20;;;;;;4916886;29;20404;-75
2022/04/12 10:33:04;;;;;;;3.92;3.72;;;24.50;45.80;;;;;;4917180;29;20175;-75
2022/04/12 10:35:42;;;;;;;3.72;3.53;;;24.80;44.50;;;;;;4915982;29;20203;-75
2022/04/12 10:38:16;;;;;;;4.53;3.83;;;24.70;45.10;;;;;;4916505;29;20748;-75
2022/04/12 10:40:44;;;;;;;3.50;3.30;;;24.10;45.40;;;;;;4915619;29;20707;-75
2022/04/12 10:43:24;;;;;;;4.50;4.20;;;24.20;45.90;;;;;;4915671;29;20183;-75
2022/04/12 10:45:51;;;;;;;3.97;3.78;;;24.50;45.30;;;;;;4916805;29;20207;-75
2022/04/12 10:48:22;;;;;;;4.82;4.63;;;24.90;45.10;;;;;;4916547;29;20189;-75
2022/04/12 10:50:58;;;;;;;3.58;3.47;;;25.20;44.70;;;;;;4916274;29;20225;-75
2022/04/12 10:53:54;;;;;;;4.40;4.10;;;25.60;43.50;;;;;;4916803;29;20190;-75
2022/04/12 10:56:25;;;;;;;3.72;3.42;;;25.50;43.50;;;;;;4919028;29;20207;-75
2022/04/12 10:58:51;;;;;;;4.25;4.05;;;25.70;43.60;;;;;;4918247;29;20563;-76
2022/04/12 11:01:33;;;;;;;3.28;2.95;;;26.70;42.80;;;;;;4917981;29;20194;-76
2022/04/12 11:04:06;;;;;;;3.70;3.38;;;26.90;40.40;;;;;;4916724;29;20246;-76
2022/04/12 11:06:33;;;;;;;3.67;3.38;;;26.20;40.60;;;;;;4915341;29;20234;-76
2022/04/12 11:09:16;;;;;;;3.15;3.00;;;26.50;41.90;;;;;;4915985;29;20190;-76
2022/04/12 11:11:45;;;;;;;3.50;3.30;;;26.90;40.70;;;;;;4916170;29;20198;-76
2022/04/12 11:14:27;;;;;;;3.20;3.00;;;26.90;40.70;;;;;;4916447;29;20183;-75
2022/04/12 11:17:02;;;;;;;3.30;3.20;;;26.40;41.10;;;;;;4915874;29;20734;-75
2022/04/12 11:19:40;;;;;;;4.00;3.38;;;26.50;41.10;;;;;;4934250;29;20177;-75
2022/04/12 11:22:19;;;;;;;3.65;3.35;;;26.20;41.80;;;;;;4920346;29;20643;-75
2022/04/12 11:25:14;;;;;;;3.78;3.30;;;26.90;40.80;;;;;;4916594;29;20214;-75
2022/04/12 11:27:40;;;;;;;3.85;3.65;;;27.10;40.00;;;;;;4911944;29;20202;-76
2022/04/12 11:30:08;;;;;;;3.10;2.95;;;26.90;41.10;;;;;;4916076;29;20603;-75
2022/04/12 11:32:34;;;;;;;3.03;2.80;;;27.10;39.90;;;;;;4916627;29;20183;-76
2022/04/12 11:35:00;;;;;;;2.90;2.80;;;27.30;39.10;;;;;;4915419;29;20185;-75
2022/04/12 11:37:26;;;;;;;3.25;3.15;;;27.50;39.40;;;;;;4915103;29;20698;-75
2022/04/12 11:39:52;;;;;;;5.13;3.05;;;27.60;38.30;;;;;;4915061;29;20188;-76
2022/04/12 11:42:18;;;;;;;3.80;3.53;;;27.30;39.20;;;;;;4914867;29;20287;-75
2022/04/12 11:44:52;;;;;;;3.78;3.58;;;27.20;38.60;;;;;;4914343;29;20183;-75
2022/04/12 11:47:18;;;;;;;3.30;3.00;;;27.20;37.80;;;;;;4913999;29;20194;-75
2022/04/12 11:49:44;;;;;;;3.50;3.40;;;27.10;38.80;;;;;;4914285;29;20203;-75
2022/04/12 11:52:13;;;;;;;3.58;3.38;;;26.50;39.10;;;;;;4915802;29;20267;-75
2022/04/12 11:54:45;;;;;;;2.92;2.83;;;26.10;39.20;;;;;;4914084;29;20830;-75
2022/04/12 11:57:21;;;;;;;2.92;2.75;;;26.10;41.10;;;;;;4915499;29;20213;-75
2022/04/12 11:59:56;;;;;;;3.28;3.17;;;26.00;40.00;;;;;;4915260;29;20182;-75
2022/04/12 12:02:22;;;;;;;5.22;3.00;;;26.00;40.00;;;;;;4914970;29;20201;-75
2022/04/12 12:04:57;;;;;;;2.97;2.88;;;26.00;39.20;;;;;;4915003;29;20179;-75
2022/04/12 12:07:24;;;;;;;3.55;3.35;;;25.90;39.90;;;;;;4914813;29;20194;-75
2022/04/12 12:09:53;;;;;;;3.80;3.60;;;25.70;40.60;;;;;;4914155;29;20207;-75
2022/04/12 12:12:19;;;;;;;3.28;3.17;;;25.60;40.80;;;;;;4915894;29;20187;-76
2022/04/12 12:14:46;;;;;;;3.80;3.55;;;25.70;40.20;;;;;;4914732;29;20187;-76
2022/04/12 12:17:19;;;;;;;4.22;3.92;;;25.70;40.00;;;;;;4914543;29;20340;-76
2022/04/12 12:19:45;;;;;;;3.38;3.08;;;25.40;40.50;;;;;;4914952;29;20710;-76
2022/04/12 12:22:13;;;;;;;2.97;2.88;;;25.90;39.90;;;;;;4913922;29;20187;-75
2022/04/12 12:24:56;;;;;;;3.08;2.80;;;26.30;39.30;;;;;;4913765;29;20202;-75
2022/04/12 12:27:29;;;;;;;3.47;3.28;;;25.90;39.20;;;;;;4915672;29;20187;-76
2022/04/12 12:30:09;;;;;;;3.17;3.08;;;25.50;41.70;;;;;;4916656;29;20222;-76
2022/04/12 12:32:39;;;;;;;3.53;3.42;;;25.70;41.00;;;;;;4918800;29;20186;-76
2022/04/12 12:35:10;;;;;;;4.00;3.80;;;25.60;40.20;;;;;;4916655;29;20187;-76
2022/04/12 12:37:37;;;;;;;3.40;3.13;;;25.50;40.00;;;;;;4914411;29;20179;-76
2022/04/12 12:40:17;;;;;;;3.00;2.80;;;25.40;40.10;;;;;;4913596;29;20183;-76
2022/04/12 12:42:43;;;;;;;3.25;3.05;;;25.30;38.90;;;;;;4915448;29;20191;-76
2022/04/12 12:45:14;;;;;;;3.50;3.30;;;25.20;39.60;;;;;;4916915;29;20207;-76
2022/04/12 12:47:42;;;;;;;3.55;3.25;;;25.30;38.80;;;;;;4917770;29;20195;-77
2022/04/12 12:50:12;;;;;;;3.25;3.15;;;25.60;39.10;;;;;;4918200;29;20210;-76
2022/04/12 12:52:39;;;;;;;2.95;2.78;;;25.90;38.90;;;;;;4918513;29;20209;-77
2022/04/12 12:55:22;;;;;;;3.00;2.80;;;25.70;39.10;;;;;;4918040;29;20313;-76
2022/04/12 12:57:53;;;;;;;3.38;3.28;;;25.70;39.00;;;;;;4918480;29;20651;-76
2022/04/12 13:00:25;;;;;;;3.35;3.15;;;25.50;39.40;;;;;;4919114;29;20199;-76
2022/04/12 13:02:59;;;;;;;3.40;3.10;;;25.40;38.90;;;;;;4923452;29;20238;-76
2022/04/12 13:05:25;;;;;;;3.72;2.90;;;25.40;38.90;;;;;;4929642;29;20214;-76
2022/04/12 13:07:56;;;;;;;3.20;3.00;;;25.40;39.70;;;;;;4921854;29;20191;-76
2022/04/12 13:10:21;;;;;;;3.80;3.50;;;25.30;39.70;;;;;;4918148;29;20222;-76
2022/04/12 13:12:49;;;;;;;3.33;3.13;;;25.30;40.50;;;;;;4917317;29;20190;-76
2022/04/12 13:15:14;;;;;;;4.38;2.88;;;25.60;40.10;;;;;;4918085;29;20294;-76
2022/04/12 13:17:41;;;;;;;3.05;2.95;;;26.10;39.30;;;;;;4909394;29;20270;-75
2022/04/12 13:20:12;;;;;;;3.40;3.20;;;26.10;39.10;;;;;;4911199;29;20222;-75
2022/04/12 13:22:39;;;;;;;3.60;3.35;;;26.30;39.70;;;;;;4915869;29;20686;-75
2022/04/12 13:25:05;;;;;;;3.63;3.33;;;26.60;38.50;;;;;;4917037;29;20183;-75
2022/04/12 13:27:32;;;;;;;3.33;3.10;;;26.30;39.00;;;;;;4916739;29;20192;-75
2022/04/12 13:29:58;;;;;;;3.80;3.60;;;26.10;38.80;;;;;;4917136;29;20504;-75
2022/04/12 13:32:24;;;;;;;3.17;3.00;;;25.90;39.70;;;;;;4915902;29;20186;-75
2022/04/12 13:34:50;;;;;;;3.78;3.58;;;26.10;40.00;;;;;;4917136;29;20176;-76
2022/04/12 13:37:17;;;;;;;3.25;2.95;;;26.20;39.50;;;;;;4917131;29;20547;-75
2022/04/12 13:39:42;;;;;;;3.30;3.10;;;26.60;40.40;;;;;;4917412;29;20179;-76
2022/04/12 13:42:09;;;;;;;3.25;3.08;;;26.50;39.70;;;;;;4916901;29;20286;-76
2022/04/12 13:44:35;;;;;;;3.67;3.47;;;26.30;40.60;;;;;;4915660;29;20239;-76
2022/04/12 13:47:03;;;;;;;3.15;3.05;;;26.30;40.40;;;;;;4915604;29;20778;-76
2022/04/12 13:49:30;;;;;;;3.75;3.55;;;26.20;40.10;;;;;;4916610;29;20187;-76
2022/04/12 13:51:57;;;;;;;3.92;3.63;;;26.20;40.10;;;;;;4916327;29;20691;-75
2022/04/12 13:54:24;;;;;;;3.40;3.22;;;26.50;40.70;;;;;;4916222;29;20517;-76
2022/04/12 13:56:50;;;;;;;3.40;3.20;;;26.00;40.00;;;;;;4916157;29;20709;-75
2022/04/12 13:59:16;;;;;;;3.00;2.90;;;25.60;40.50;;;;;;4914998;29;20199;-76
2022/04/12 14:01:42;;;;;;;3.05;2.80;;;25.50;40.20;;;;;;4916380;29;20199;-76
2022/04/12 14:04:08;;;;;;;3.13;3.00;;;25.60;40.30;;;;;;4916229;29;20194;-76
2022/04/12 14:06:35;;;;;;;3.13;3.03;;;25.70;39.70;;;;;;4916081;29;20821;-76
2022/04/12 14:09:01;;;;;;;3.22;3.10;;;25.60;39.60;;;;;;4914752;29;20190;-75
2022/04/12 14:11:27;;;;;;;2.95;2.85;;;25.50;40.10;;;;;;4917690;29;20353;-76
2022/04/12 14:13:52;;;;;;;3.75;3.30;;;25.50;39.20;;;;;;4918691;29;20242;-76
2022/04/12 14:16:18;;;;;;;3.22;2.90;;;25.40;39.60;;;;;;4915705;29;20211;-76
2022/04/12 14:18:46;;;;;;;3.50;3.20;;;25.80;40.30;;;;;;4915786;29;20206;-75
2022/04/12 14:21:12;;;;;;;3.55;3.35;;;26.10;39.30;;;;;;4915902;29;20645;-76
2022/04/12 14:23:38;;;;;;;3.63;3.47;;;25.80;40.30;;;;;;4916301;29;20278;-75
2022/04/12 14:26:06;;;;;;;3.78;3.67;;;25.50;40.50;;;;;;4916070;29;20215;-76
2022/04/12 14:28:36;;;;;;;3.70;3.50;;;25.20;41.60;;;;;;4914533;29;20266;-76
2022/04/12 14:31:08;;;;;;;5.55;5.35;;;25.10;41.60;;;;;;4914838;29;20230;-76
2022/04/12 14:33:35;;;;;;;5.60;5.20;;;25.10;42.90;;;;;;4916474;29;20183;-75
2022/04/12 14:36:05;;;;;;;4.78;4.47;;;25.00;44.10;;;;;;4916421;29;20209;-76
2022/04/12 14:38:31;;;;;;;4.47;4.32;;;25.00;45.00;;;;;;4916129;29;20190;-76
2022/04/12 14:40:57;;;;;;;5.15;4.75;;;25.00;44.10;;;;;;4914976;29;20193;-76
2022/04/12 14:43:25;;;;;;;4.22;4.03;;;25.00;43.40;;;;;;4915946;29;20190;-76
2022/04/12 14:45:52;;;;;;;5.50;4.80;;;24.50;44.90;;;;;;4916326;29;20586;-76
2022/04/12 14:48:19;;;;;;;4.57;4.38;;;24.50;44.60;;;;;;4928940;29;20187;-76
2022/04/12 14:50:45;;;;;;;4.63;4.32;;;24.50;45.00;;;;;;4924149;29;20218;-76
2022/04/12 14:53:11;;;;;;;4.15;3.88;;;24.40;45.10;;;;;;4917239;29;20180;-76
2022/04/12 14:55:37;;;;;;;5.32;5.03;;;24.60;45.20;;;;;;4915759;29;20210;-76
2022/04/12 14:58:03;;;;;;;4.85;4.45;;;24.90;45.30;;;;;;4915319;29;20273;-76
2022/04/12 15:00:28;;;;;;;5.68;5.28;;;24.40;45.60;;;;;;4915695;29;20278;-76
2022/04/12 15:02:54;;;;;;;6.47;6.10;;;24.20;47.00;;;;;;4915717;29;20194;-76
2022/04/12 15:05:20;;;;;;;8.82;8.43;;;23.90;47.40;;;;;;4914817;29;20640;-76
2022/04/12 15:07:46;;;;;;;11.05;10.48;;;23.60;48.40;;;;;;4915288;29;20751;-76
2022/04/12 15:10:12;;;;;;;13.25;12.55;;;23.80;48.60;;;;;;4915631;29;20560;-76
2022/04/12 15:12:38;;;;;;;12.90;11.98;;;23.80;48.70;;;;;;4915513;29;20186;-76
2022/04/12 15:15:05;;;;;;;12.23;11.52;;;23.70;49.00;;;;;;4914233;29;20259;-75
2022/04/12 15:17:34;;;;;;;13.13;12.25;;;23.50;49.30;;;;;;4935510;23;20269;-72
2022/04/12 15:19:59;;;;;;;13.43;12.73;;;23.30;49.70;;;;;;4915474;29;20183;-72
2022/04/12 15:22:25;;;;;;;12.05;11.35;;;23.30;50.40;;;;;;4915551;29;20619;-72
2022/04/12 15:24:52;;;;;;;11.38;10.73;;;23.40;50.10;;;;;;4914101;29;20193;-72
2022/04/12 15:27:18;;;;;;;11.45;10.80;;;23.70;50.00;;;;;;4919898;29;20270;-72
2022/04/12 15:29:43;;;;;;;10.00;9.38;;;23.90;49.90;;;;;;4919889;29;20195;-72
2022/04/12 15:32:09;;;;;;;12.93;9.32;;;23.90;50.40;;;;;;4916673;29;20238;-72
2022/04/12 15:34:35;;;;;;;12.50;11.85;;;23.80;49.90;;;;;;4916212;29;20206;-71
2022/04/12 15:37:01;;;;;;;11.07;10.35;;;23.50;50.80;;;;;;4917054;29;20687;-71
2022/04/12 15:39:27;;;;;;;10.23;9.48;;;23.40;51.40;;;;;;4916207;29;20246;-72
2022/04/12 15:41:53;;;;;;;11.93;11.18;;;23.60;51.80;;;;;;4916087;29;20182;-72
2022/04/12 15:44:20;;;;;;;11.05;10.32;;;23.90;51.30;;;;;;4915989;29;20181;-72
2022/04/12 15:46:46;;;;;;;11.80;11.20;;;24.30;50.30;;;;;;4914996;29;20691;-72